Hovedside
METAR-TAF:

METAR-TAF

Lufthavner :

Longyearbyen, Norge

Svalbard lufthavn. Longyear

breddegrad: 78-15N, lengdegrad: 015-28E, høyde over havet: 2 m

Gjeldene værobservasjon

Denne rapporten ble laget for 32 minutter siden, klokken 18:50 UTC
Vind 11 kt fra Øst-sørøst
Temperatur 0°C
Luftfuktighet 74%
Trykk 1010 hPa
Sikt 10 km eller mer
Få skyer i en høyde av 2200 ft
Brutte skyer i en høyde av 4000 ft

METAR: ENSB 181850Z 11011KT 9999 FEW022 BKN040 M00/M04 Q1010 RMK WIND 1400FT 10015KT

Tid: 20:22 (19:22 UTC)

Varsel

Varsel gyldig fra 18. klokken 18 UTC til 19. klokken 18 UTC
Vind 12 kt fra Øst-sørøst
Sikt 10 km eller mer
Få skyer i en høyde av 1500 ft
Brutte skyer i en høyde av 3000 ft
lett snø
Midlertidig
fra 18. klokken 18 UTC til 19. klokken 18 UTC
Vind 15 kt fra Øst-sørøst med vindkast opp mot 28 kt

TAF: ENSB 1818/1918 12012KT 9999 -SN FEW015 BKN030 TEMPO 1818/1918 11015G28KT

Værobservasjoner og værvarsel for over 4000 flyplasser (METAR- og TAF-rapporter).

Tilgjengelige stasjoner er representert av de røde og gule prikkene på kartet.

Hold musepekeren over prikken for å se navnet på stasjonen.

Klikk så for å se værobservasjoner og -varsler.

For å forandre kartet kan du klikke på den grønne knappen med svart kryss for å zoome inn, på den grønne knappen med strek for å zoome ut, eller på de grønne pilene for å se tilstøtende kart.


METAR-TAF: